sensor_id;sensor_type;location;lat;lon;timestamp;P1;durP1;ratioP1;P2;durP2;ratioP2
58896;SDS011;44677;52.378;10.400;2023-02-28T00:00:09;4.80;;;4.40;;
58896;SDS011;44677;52.378;10.400;2023-02-28T00:02:37;6.40;;;4.60;;
58896;SDS011;44677;52.378;10.400;2023-02-28T00:05:03;6.10;;;5.00;;
58896;SDS011;44677;52.378;10.400;2023-02-28T00:07:30;4.60;;;4.20;;
58896;SDS011;44677;52.378;10.400;2023-02-28T00:10:02;6.10;;;4.80;;
58896;SDS011;44677;52.378;10.400;2023-02-28T00:12:29;7.20;;;4.50;;
58896;SDS011;44677;52.378;10.400;2023-02-28T00:14:54;7.40;;;4.90;;
58896;SDS011;44677;52.378;10.400;2023-02-28T00:17:20;5.50;;;4.30;;
58896;SDS011;44677;52.378;10.400;2023-02-28T00:19:47;8.00;;;5.00;;
58896;SDS011;44677;52.378;10.400;2023-02-28T00:22:14;5.40;;;4.60;;
58896;SDS011;44677;52.378;10.400;2023-02-28T00:24:40;7.40;;;4.70;;
58896;SDS011;44677;52.378;10.400;2023-02-28T00:27:05;12.20;;;6.30;;
58896;SDS011;44677;52.378;10.400;2023-02-28T00:29:31;11.10;;;6.90;;
58896;SDS011;44677;52.378;10.400;2023-02-28T00:31:56;11.80;;;6.60;;
58896;SDS011;44677;52.378;10.400;2023-02-28T00:34:22;10.80;;;6.50;;
58896;SDS011;44677;52.378;10.400;2023-02-28T00:36:47;9.50;;;6.60;;
58896;SDS011;44677;52.378;10.400;2023-02-28T00:39:15;8.10;;;4.90;;
58896;SDS011;44677;52.378;10.400;2023-02-28T00:41:41;9.00;;;6.30;;
58896;SDS011;44677;52.378;10.400;2023-02-28T00:44:06;9.40;;;6.20;;
58896;SDS011;44677;52.378;10.400;2023-02-28T00:46:32;7.60;;;5.90;;
58896;SDS011;44677;52.378;10.400;2023-02-28T00:48:57;7.00;;;4.70;;
58896;SDS011;44677;52.378;10.400;2023-02-28T00:51:23;7.60;;;5.10;;
58896;SDS011;44677;52.378;10.400;2023-02-28T00:53:48;10.60;;;4.70;;
58896;SDS011;44677;52.378;10.400;2023-02-28T00:56:15;6.50;;;3.90;;
58896;SDS011;44677;52.378;10.400;2023-02-28T00:58:41;6.10;;;4.30;;
58896;SDS011;44677;52.378;10.400;2023-02-28T01:01:06;6.80;;;4.20;;
58896;SDS011;44677;52.378;10.400;2023-02-28T01:03:32;5.80;;;3.70;;
58896;SDS011;44677;52.378;10.400;2023-02-28T01:05:57;5.30;;;3.60;;
58896;SDS011;44677;52.378;10.400;2023-02-28T01:08:23;5.80;;;4.10;;
58896;SDS011;44677;52.378;10.400;2023-02-28T01:10:49;8.30;;;3.90;;
58896;SDS011;44677;52.378;10.400;2023-02-28T01:13:15;3.50;;;3.20;;
58896;SDS011;44677;52.378;10.400;2023-02-28T01:15:42;4.60;;;3.50;;
58896;SDS011;44677;52.378;10.400;2023-02-28T01:18:11;4.50;;;3.50;;
58896;SDS011;44677;52.378;10.400;2023-02-28T01:20:36;5.20;;;3.50;;
58896;SDS011;44677;52.378;10.400;2023-02-28T01:23:02;5.00;;;3.90;;
58896;SDS011;44677;52.378;10.400;2023-02-28T01:25:28;4.00;;;3.60;;
58896;SDS011;44677;52.378;10.400;2023-02-28T01:27:53;5.00;;;3.60;;
58896;SDS011;44677;52.378;10.400;2023-02-28T01:30:19;5.00;;;3.80;;
58896;SDS011;44677;52.378;10.400;2023-02-28T01:32:46;6.90;;;3.50;;
58896;SDS011;44677;52.378;10.400;2023-02-28T01:35:11;4.70;;;3.40;;
58896;SDS011;44677;52.378;10.400;2023-02-28T01:37:37;4.00;;;3.30;;
58896;SDS011;44677;52.378;10.400;2023-02-28T01:40:02;3.80;;;3.40;;
58896;SDS011;44677;52.378;10.400;2023-02-28T01:42:28;5.90;;;3.50;;
58896;SDS011;44677;52.378;10.400;2023-02-28T01:44:55;3.50;;;3.00;;
58896;SDS011;44677;52.378;10.400;2023-02-28T01:47:21;4.70;;;3.60;;
58896;SDS011;44677;52.378;10.400;2023-02-28T01:49:47;4.80;;;3.30;;
58896;SDS011;44677;52.378;10.400;2023-02-28T01:52:14;5.50;;;3.20;;
58896;SDS011;44677;52.378;10.400;2023-02-28T01:54:43;7.50;;;3.80;;
58896;SDS011;44677;52.378;10.400;2023-02-28T01:57:13;4.70;;;3.80;;
58896;SDS011;44677;52.378;10.400;2023-02-28T01:59:42;4.70;;;3.30;;
58896;SDS011;44677;52.378;10.400;2023-02-28T02:02:14;5.20;;;3.50;;
58896;SDS011;44677;52.378;10.400;2023-02-28T02:04:43;3.50;;;3.10;;
58896;SDS011;44677;52.378;10.400;2023-02-28T02:07:15;3.60;;;3.30;;
58896;SDS011;44677;52.378;10.400;2023-02-28T02:09:43;6.10;;;3.50;;
58896;SDS011;44677;52.378;10.400;2023-02-28T02:12:13;6.50;;;3.80;;
58896;SDS011;44677;52.378;10.400;2023-02-28T02:18:02;4.00;;;3.00;;
58896;SDS011;44677;52.378;10.400;2023-02-28T02:29:21;3.90;;;3.50;;
58896;SDS011;44677;52.378;10.400;2023-02-28T02:37:10;3.90;;;3.10;;
58896;SDS011;44677;52.378;10.400;2023-02-28T02:39:53;3.80;;;3.50;;
58896;SDS011;44677;52.378;10.400;2023-02-28T02:43:13;3.90;;;3.50;;
58896;SDS011;44677;52.378;10.400;2023-02-28T02:45:22;5.50;;;3.20;;
58896;SDS011;44677;52.378;10.400;2023-02-28T02:47:51;4.10;;;3.30;;
58896;SDS011;44677;52.378;10.400;2023-02-28T02:50:26;3.60;;;3.20;;
58896;SDS011;44677;52.378;10.400;2023-02-28T02:52:57;5.00;;;3.20;;
58896;SDS011;44677;52.378;10.400;2023-02-28T02:55:26;4.20;;;3.50;;
58896;SDS011;44677;52.378;10.400;2023-02-28T02:57:58;4.50;;;3.90;;
58896;SDS011;44677;52.378;10.400;2023-02-28T03:00:33;4.30;;;3.40;;
58896;SDS011;44677;52.378;10.400;2023-02-28T03:03:01;4.90;;;4.10;;
58896;SDS011;44677;52.378;10.400;2023-02-28T03:05:29;6.20;;;4.20;;
58896;SDS011;44677;52.378;10.400;2023-02-28T03:07:59;7.80;;;3.90;;
58896;SDS011;44677;52.378;10.400;2023-02-28T03:10:32;5.30;;;3.90;;
58896;SDS011;44677;52.378;10.400;2023-02-28T03:24:19;5.20;;;4.20;;
58896;SDS011;44677;52.378;10.400;2023-02-28T03:26:52;5.70;;;4.40;;
58896;SDS011;44677;52.378;10.400;2023-02-28T03:29:30;6.40;;;4.40;;
58896;SDS011;44677;52.378;10.400;2023-02-28T03:32:02;4.90;;;4.20;;
58896;SDS011;44677;52.378;10.400;2023-02-28T03:34:37;5.90;;;4.30;;
58896;SDS011;44677;52.378;10.400;2023-02-28T03:37:10;4.60;;;4.10;;
58896;SDS011;44677;52.378;10.400;2023-02-28T03:42:15;6.20;;;4.60;;
58896;SDS011;44677;52.378;10.400;2023-02-28T03:44:48;5.40;;;4.20;;
58896;SDS011;44677;52.378;10.400;2023-02-28T03:47:21;5.50;;;4.40;;
58896;SDS011;44677;52.378;10.400;2023-02-28T03:49:56;5.00;;;4.20;;
58896;SDS011;44677;52.378;10.400;2023-02-28T03:52:25;5.20;;;4.10;;
58896;SDS011;44677;52.378;10.400;2023-02-28T03:54:54;5.10;;;4.10;;
58896;SDS011;44677;52.378;10.400;2023-02-28T03:57:23;6.10;;;4.70;;
58896;SDS011;44677;52.378;10.400;2023-02-28T04:00:02;4.80;;;4.00;;
58896;SDS011;44677;52.378;10.400;2023-02-28T04:02:37;5.30;;;4.40;;
58896;SDS011;44677;52.378;10.400;2023-02-28T04:05:05;6.30;;;3.60;;
58896;SDS011;44677;52.378;10.400;2023-02-28T04:09:57;5.10;;;3.70;;
58896;SDS011;44677;52.378;10.400;2023-02-28T04:12:23;4.50;;;3.60;;
58896;SDS011;44677;52.378;10.400;2023-02-28T04:14:49;6.70;;;4.20;;
58896;SDS011;44677;52.378;10.400;2023-02-28T04:17:15;3.90;;;3.50;;
58896;SDS011;44677;52.378;10.400;2023-02-28T04:19:41;4.40;;;4.00;;
58896;SDS011;44677;52.378;10.400;2023-02-28T04:22:07;5.00;;;3.80;;
58896;SDS011;44677;52.378;10.400;2023-02-28T04:24:33;4.40;;;3.70;;
58896;SDS011;44677;52.378;10.400;2023-02-28T04:26:59;4.50;;;3.90;;
58896;SDS011;44677;52.378;10.400;2023-02-28T04:29:26;4.60;;;3.90;;
58896;SDS011;44677;52.378;10.400;2023-02-28T04:31:53;4.80;;;4.20;;
58896;SDS011;44677;52.378;10.400;2023-02-28T04:34:20;4.50;;;3.60;;
58896;SDS011;44677;52.378;10.400;2023-02-28T04:36:46;5.00;;;3.70;;
58896;SDS011;44677;52.378;10.400;2023-02-28T04:39:14;6.00;;;3.90;;
58896;SDS011;44677;52.378;10.400;2023-02-28T04:41:40;4.30;;;3.90;;
58896;SDS011;44677;52.378;10.400;2023-02-28T04:44:06;5.20;;;4.10;;
58896;SDS011;44677;52.378;10.400;2023-02-28T04:46:31;5.00;;;4.20;;
58896;SDS011;44677;52.378;10.400;2023-02-28T04:48:57;4.90;;;4.10;;
58896;SDS011;44677;52.378;10.400;2023-02-28T04:51:23;6.10;;;3.90;;
58896;SDS011;44677;52.378;10.400;2023-02-28T04:53:48;6.10;;;3.90;;
58896;SDS011;44677;52.378;10.400;2023-02-28T04:56:15;5.00;;;4.10;;
58896;SDS011;44677;52.378;10.400;2023-02-28T04:58:43;6.40;;;4.20;;
58896;SDS011;44677;52.378;10.400;2023-02-28T05:03:51;6.30;;;4.30;;
58896;SDS011;44677;52.378;10.400;2023-02-28T05:06:17;5.60;;;4.00;;
58896;SDS011;44677;52.378;10.400;2023-02-28T05:08:43;5.10;;;3.80;;
58896;SDS011;44677;52.378;10.400;2023-02-28T05:11:16;5.20;;;4.20;;
58896;SDS011;44677;52.378;10.400;2023-02-28T05:13:44;6.30;;;4.40;;
58896;SDS011;44677;52.378;10.400;2023-02-28T05:16:10;5.80;;;4.00;;
58896;SDS011;44677;52.378;10.400;2023-02-28T05:18:36;4.90;;;4.10;;
58896;SDS011;44677;52.378;10.400;2023-02-28T05:21:01;6.20;;;4.70;;
58896;SDS011;44677;52.378;10.400;2023-02-28T05:23:27;6.60;;;4.20;;
58896;SDS011;44677;52.378;10.400;2023-02-28T05:25:53;6.60;;;4.10;;
58896;SDS011;44677;52.378;10.400;2023-02-28T05:28:19;5.30;;;3.70;;
58896;SDS011;44677;52.378;10.400;2023-02-28T05:30:44;7.30;;;4.60;;
58896;SDS011;44677;52.378;10.400;2023-02-28T05:33:11;4.30;;;3.70;;
58896;SDS011;44677;52.378;10.400;2023-02-28T05:35:37;6.20;;;4.00;;
58896;SDS011;44677;52.378;10.400;2023-02-28T05:38:04;5.20;;;4.30;;
58896;SDS011;44677;52.378;10.400;2023-02-28T05:40:29;6.90;;;4.20;;
58896;SDS011;44677;52.378;10.400;2023-02-28T05:42:54;6.30;;;4.30;;
58896;SDS011;44677;52.378;10.400;2023-02-28T05:45:20;9.40;;;4.60;;
58896;SDS011;44677;52.378;10.400;2023-02-28T05:47:45;5.90;;;4.40;;
58896;SDS011;44677;52.378;10.400;2023-02-28T05:50:10;8.70;;;4.70;;
58896;SDS011;44677;52.378;10.400;2023-02-28T05:52:36;6.30;;;4.60;;
58896;SDS011;44677;52.378;10.400;2023-02-28T05:55:02;6.00;;;4.70;;
58896;SDS011;44677;52.378;10.400;2023-02-28T05:57:29;5.20;;;4.00;;
58896;SDS011;44677;52.378;10.400;2023-02-28T05:59:55;6.60;;;4.50;;
58896;SDS011;44677;52.378;10.400;2023-02-28T06:02:20;6.50;;;4.60;;
58896;SDS011;44677;52.378;10.400;2023-02-28T06:04:45;8.30;;;5.40;;
58896;SDS011;44677;52.378;10.400;2023-02-28T06:07:11;8.10;;;5.50;;
58896;SDS011;44677;52.378;10.400;2023-02-28T06:09:36;7.60;;;5.70;;
58896;SDS011;44677;52.378;10.400;2023-02-28T06:12:03;7.10;;;5.20;;
58896;SDS011;44677;52.378;10.400;2023-02-28T06:14:31;7.20;;;5.40;;
58896;SDS011;44677;52.378;10.400;2023-02-28T06:16:58;8.30;;;5.30;;
58896;SDS011;44677;52.378;10.400;2023-02-28T06:19:24;6.90;;;4.80;;
58896;SDS011;44677;52.378;10.400;2023-02-28T06:21:53;6.90;;;4.90;;
58896;SDS011;44677;52.378;10.400;2023-02-28T06:24:19;7.90;;;5.20;;
58896;SDS011;44677;52.378;10.400;2023-02-28T06:26:45;5.40;;;4.50;;
58896;SDS011;44677;52.378;10.400;2023-02-28T06:29:14;6.00;;;4.30;;
58896;SDS011;44677;52.378;10.400;2023-02-28T06:31:45;7.60;;;4.70;;
58896;SDS011;44677;52.378;10.400;2023-02-28T06:34:11;6.70;;;4.60;;
58896;SDS011;44677;52.378;10.400;2023-02-28T06:36:40;6.80;;;4.80;;
58896;SDS011;44677;52.378;10.400;2023-02-28T06:39:06;7.50;;;5.10;;
58896;SDS011;44677;52.378;10.400;2023-02-28T06:41:33;6.40;;;5.10;;
58896;SDS011;44677;52.378;10.400;2023-02-28T06:44:10;6.30;;;5.20;;
58896;SDS011;44677;52.378;10.400;2023-02-28T06:46:38;5.80;;;5.20;;
58896;SDS011;44677;52.378;10.400;2023-02-28T06:49:07;9.30;;;5.20;;
58896;SDS011;44677;52.378;10.400;2023-02-28T06:51:34;5.80;;;4.70;;
58896;SDS011;44677;52.378;10.400;2023-02-28T06:54:03;5.40;;;4.60;;
58896;SDS011;44677;52.378;10.400;2023-02-28T06:56:29;5.80;;;4.80;;
58896;SDS011;44677;52.378;10.400;2023-02-28T06:58:54;7.00;;;4.80;;
58896;SDS011;44677;52.378;10.400;2023-02-28T07:01:21;6.30;;;4.90;;
58896;SDS011;44677;52.378;10.400;2023-02-28T07:03:51;4.50;;;4.10;;
58896;SDS011;44677;52.378;10.400;2023-02-28T07:06:18;9.20;;;5.40;;
58896;SDS011;44677;52.378;10.400;2023-02-28T07:08:44;6.20;;;4.50;;
58896;SDS011;44677;52.378;10.400;2023-02-28T07:11:10;6.50;;;4.50;;
58896;SDS011;44677;52.378;10.400;2023-02-28T07:13:35;5.40;;;4.30;;
58896;SDS011;44677;52.378;10.400;2023-02-28T07:16:02;4.90;;;4.40;;
58896;SDS011;44677;52.378;10.400;2023-02-28T07:18:30;6.90;;;4.50;;
58896;SDS011;44677;52.378;10.400;2023-02-28T07:20:56;6.80;;;4.50;;
58896;SDS011;44677;52.378;10.400;2023-02-28T07:23:26;4.50;;;4.10;;
58896;SDS011;44677;52.378;10.400;2023-02-28T07:25:52;7.00;;;4.80;;
58896;SDS011;44677;52.378;10.400;2023-02-28T07:28:17;5.50;;;4.40;;
58896;SDS011;44677;52.378;10.400;2023-02-28T07:30:43;7.50;;;4.80;;
58896;SDS011;44677;52.378;10.400;2023-02-28T07:33:08;5.20;;;4.70;;
58896;SDS011;44677;52.378;10.400;2023-02-28T07:35:34;5.60;;;4.50;;
58896;SDS011;44677;52.378;10.400;2023-02-28T07:37:59;6.60;;;4.50;;
58896;SDS011;44677;52.378;10.400;2023-02-28T07:40:25;5.90;;;4.30;;
58896;SDS011;44677;52.378;10.400;2023-02-28T07:42:51;5.00;;;4.50;;
58896;SDS011;44677;52.378;10.400;2023-02-28T07:45:16;4.50;;;3.70;;
58896;SDS011;44677;52.378;10.400;2023-02-28T07:47:42;7.20;;;4.10;;
58896;SDS011;44677;52.378;10.400;2023-02-28T07:50:09;5.40;;;3.60;;
58896;SDS011;44677;52.378;10.400;2023-02-28T07:52:36;5.10;;;3.60;;
58896;SDS011;44677;52.378;10.400;2023-02-28T07:55:03;4.10;;;3.70;;
58896;SDS011;44677;52.378;10.400;2023-02-28T07:57:30;4.80;;;3.60;;
58896;SDS011;44677;52.378;10.400;2023-02-28T07:59:55;6.40;;;3.80;;
58896;SDS011;44677;52.378;10.400;2023-02-28T08:02:21;4.30;;;3.70;;
58896;SDS011;44677;52.378;10.400;2023-02-28T08:04:47;5.40;;;3.20;;
58896;SDS011;44677;52.378;10.400;2023-02-28T08:07:13;4.30;;;3.50;;
58896;SDS011;44677;52.378;10.400;2023-02-28T08:09:40;4.00;;;3.40;;
58896;SDS011;44677;52.378;10.400;2023-02-28T08:12:06;3.80;;;3.30;;
58896;SDS011;44677;52.378;10.400;2023-02-28T08:14:32;5.00;;;3.20;;
58896;SDS011;44677;52.378;10.400;2023-02-28T08:16:58;4.60;;;3.40;;
58896;SDS011;44677;52.378;10.400;2023-02-28T08:19:23;4.30;;;3.50;;
58896;SDS011;44677;52.378;10.400;2023-02-28T08:21:48;3.50;;;3.10;;
58896;SDS011;44677;52.378;10.400;2023-02-28T08:24:14;3.20;;;2.90;;
58896;SDS011;44677;52.378;10.400;2023-02-28T08:26:39;3.30;;;3.00;;
58896;SDS011;44677;52.378;10.400;2023-02-28T08:29:05;3.30;;;2.80;;
58896;SDS011;44677;52.378;10.400;2023-02-28T08:31:30;3.50;;;2.70;;
58896;SDS011;44677;52.378;10.400;2023-02-28T08:33:56;3.00;;;2.70;;
58896;SDS011;44677;52.378;10.400;2023-02-28T08:36:24;2.80;;;2.40;;
58896;SDS011;44677;52.378;10.400;2023-02-28T08:38:50;5.50;;;2.90;;
58896;SDS011;44677;52.378;10.400;2023-02-28T08:41:15;3.60;;;2.90;;
58896;SDS011;44677;52.378;10.400;2023-02-28T08:43:41;3.10;;;2.80;;
58896;SDS011;44677;52.378;10.400;2023-02-28T08:46:08;2.70;;;2.50;;
58896;SDS011;44677;52.378;10.400;2023-02-28T08:48:36;3.10;;;2.80;;
58896;SDS011;44677;52.378;10.400;2023-02-28T08:51:05;3.00;;;2.40;;
58896;SDS011;44677;52.378;10.400;2023-02-28T08:53:38;3.00;;;2.60;;
58896;SDS011;44677;52.378;10.400;2023-02-28T08:56:08;4.90;;;2.60;;
58896;SDS011;44677;52.378;10.400;2023-02-28T08:58:35;3.40;;;2.60;;
58896;SDS011;44677;52.378;10.400;2023-02-28T09:01:06;3.50;;;2.20;;
58896;SDS011;44677;52.378;10.400;2023-02-28T09:03:33;2.60;;;2.40;;
58896;SDS011;44677;52.378;10.400;2023-02-28T09:05:59;3.20;;;2.40;;
58896;SDS011;44677;52.378;10.400;2023-02-28T09:08:26;3.30;;;2.50;;
58896;SDS011;44677;52.378;10.400;2023-02-28T09:10:53;3.00;;;2.60;;
58896;SDS011;44677;52.378;10.400;2023-02-28T09:13:21;2.90;;;2.40;;
58896;SDS011;44677;52.378;10.400;2023-02-28T09:15:47;3.90;;;2.40;;
58896;SDS011;44677;52.378;10.400;2023-02-28T09:18:12;4.10;;;2.40;;
58896;SDS011;44677;52.378;10.400;2023-02-28T09:20:39;3.10;;;2.30;;
58896;SDS011;44677;52.378;10.400;2023-02-28T09:23:05;3.50;;;2.40;;
58896;SDS011;44677;52.378;10.400;2023-02-28T09:25:33;4.20;;;2.50;;
58896;SDS011;44677;52.378;10.400;2023-02-28T09:27:59;4.50;;;2.40;;
58896;SDS011;44677;52.378;10.400;2023-02-28T09:30:25;2.70;;;2.30;;
58896;SDS011;44677;52.378;10.400;2023-02-28T09:32:50;3.30;;;2.50;;
58896;SDS011;44677;52.378;10.400;2023-02-28T09:35:23;3.30;;;2.40;;
58896;SDS011;44677;52.378;10.400;2023-02-28T09:37:50;5.50;;;2.90;;
58896;SDS011;44677;52.378;10.400;2023-02-28T09:40:17;3.10;;;2.80;;
58896;SDS011;44677;52.378;10.400;2023-02-28T09:42:46;4.10;;;2.90;;
58896;SDS011;44677;52.378;10.400;2023-02-28T09:48:12;4.30;;;3.00;;
58896;SDS011;44677;52.378;10.400;2023-02-28T09:50:51;4.50;;;2.60;;
58896;SDS011;44677;52.378;10.400;2023-02-28T09:55:53;4.10;;;3.00;;
58896;SDS011;44677;52.378;10.400;2023-02-28T10:01:21;4.80;;;2.90;;
58896;SDS011;44677;52.378;10.400;2023-02-28T10:03:51;5.00;;;3.20;;
58896;SDS011;44677;52.378;10.400;2023-02-28T10:06:22;5.50;;;3.30;;
58896;SDS011;44677;52.378;10.400;2023-02-28T10:11:27;5.10;;;3.60;;
58896;SDS011;44677;52.378;10.400;2023-02-28T10:13:54;4.10;;;3.10;;
58896;SDS011;44677;52.378;10.400;2023-02-28T10:16:34;4.30;;;3.20;;
58896;SDS011;44677;52.378;10.400;2023-02-28T10:19:08;6.90;;;4.50;;
58896;SDS011;44677;52.378;10.400;2023-02-28T10:21:57;6.00;;;3.50;;
58896;SDS011;44677;52.378;10.400;2023-02-28T10:24:35;4.80;;;3.30;;
58896;SDS011;44677;52.378;10.400;2023-02-28T10:29:43;5.90;;;3.40;;
58896;SDS011;44677;52.378;10.400;2023-02-28T10:32:11;4.90;;;3.50;;
58896;SDS011;44677;52.378;10.400;2023-02-28T10:34:39;7.10;;;3.70;;
58896;SDS011;44677;52.378;10.400;2023-02-28T10:37:05;7.20;;;3.50;;
58896;SDS011;44677;52.378;10.400;2023-02-28T10:39:38;5.20;;;3.40;;
58896;SDS011;44677;52.378;10.400;2023-02-28T10:42:03;5.20;;;3.50;;
58896;SDS011;44677;52.378;10.400;2023-02-28T10:44:30;4.50;;;3.10;;
58896;SDS011;44677;52.378;10.400;2023-02-28T10:46:55;5.60;;;3.40;;
58896;SDS011;44677;52.378;10.400;2023-02-28T10:49:28;7.10;;;4.00;;
58896;SDS011;44677;52.378;10.400;2023-02-28T10:51:55;5.80;;;3.20;;
58896;SDS011;44677;52.378;10.400;2023-02-28T10:54:23;6.10;;;3.70;;
58896;SDS011;44677;52.378;10.400;2023-02-28T10:57:05;3.90;;;3.00;;
58896;SDS011;44677;52.378;10.400;2023-02-28T10:59:32;5.20;;;3.10;;
58896;SDS011;44677;52.378;10.400;2023-02-28T11:01:57;4.90;;;3.60;;
58896;SDS011;44677;52.378;10.400;2023-02-28T11:07:34;6.80;;;3.20;;
58896;SDS011;44677;52.378;10.400;2023-02-28T11:09:39;5.30;;;3.30;;
58896;SDS011;44677;52.378;10.400;2023-02-28T11:12:07;3.30;;;2.50;;
58896;SDS011;44677;52.378;10.400;2023-02-28T11:14:40;2.40;;;2.20;;
58896;SDS011;44677;52.378;10.400;2023-02-28T11:19:45;2.70;;;1.70;;
58896;SDS011;44677;52.378;10.400;2023-02-28T11:22:17;3.90;;;2.30;;
58896;SDS011;44677;52.378;10.400;2023-02-28T11:24:46;3.00;;;1.70;;
58896;SDS011;44677;52.378;10.400;2023-02-28T11:29:54;2.30;;;1.40;;
58896;SDS011;44677;52.378;10.400;2023-02-28T11:32:22;2.90;;;1.60;;
58896;SDS011;44677;52.378;10.400;2023-02-28T11:37:27;1.90;;;1.80;;
58896;SDS011;44677;52.378;10.400;2023-02-28T11:39:53;2.20;;;1.80;;
58896;SDS011;44677;52.378;10.400;2023-02-28T11:42:23;2.80;;;1.80;;
58896;SDS011;44677;52.378;10.400;2023-02-28T11:45:03;2.80;;;2.00;;
58896;SDS011;44677;52.378;10.400;2023-02-28T11:47:58;3.10;;;2.10;;
58896;SDS011;44677;52.378;10.400;2023-02-28T11:53:22;2.30;;;1.90;;
58896;SDS011;44677;52.378;10.400;2023-02-28T11:56:12;2.00;;;1.80;;
58896;SDS011;44677;52.378;10.400;2023-02-28T11:59:00;4.60;;;2.00;;
58896;SDS011;44677;52.378;10.400;2023-02-28T12:06:57;2.40;;;2.00;;
58896;SDS011;44677;52.378;10.400;2023-02-28T12:09:32;1.60;;;1.50;;
58896;SDS011;44677;52.378;10.400;2023-02-28T12:17:30;2.20;;;2.00;;
58896;SDS011;44677;52.378;10.400;2023-02-28T12:28:21;2.20;;;2.00;;
58896;SDS011;44677;52.378;10.400;2023-02-28T12:30:52;3.30;;;2.20;;
58896;SDS011;44677;52.378;10.400;2023-02-28T12:33:23;2.30;;;2.10;;
58896;SDS011;44677;52.378;10.400;2023-02-28T12:35:52;2.50;;;2.30;;
58896;SDS011;44677;52.378;10.400;2023-02-28T12:38:27;2.50;;;2.10;;
58896;SDS011;44677;52.378;10.400;2023-02-28T12:41:16;2.50;;;2.30;;
58896;SDS011;44677;52.378;10.400;2023-02-28T12:43:44;4.10;;;2.20;;
58896;SDS011;44677;52.378;10.400;2023-02-28T12:46:17;2.70;;;2.20;;
58896;SDS011;44677;52.378;10.400;2023-02-28T12:49:06;3.40;;;2.30;;
58896;SDS011;44677;52.378;10.400;2023-02-28T12:51:34;2.10;;;2.00;;
58896;SDS011;44677;52.378;10.400;2023-02-28T12:54:04;4.30;;;2.90;;
58896;SDS011;44677;52.378;10.400;2023-02-28T12:56:42;5.00;;;2.20;;
58896;SDS011;44677;52.378;10.400;2023-02-28T12:59:14;2.30;;;2.10;;
58896;SDS011;44677;52.378;10.400;2023-02-28T13:07:31;2.20;;;2.10;;
58896;SDS011;44677;52.378;10.400;2023-02-28T13:10:11;2.10;;;1.90;;
58896;SDS011;44677;52.378;10.400;2023-02-28T13:12:46;3.70;;;2.40;;
58896;SDS011;44677;52.378;10.400;2023-02-28T13:15:18;2.90;;;2.50;;
58896;SDS011;44677;52.378;10.400;2023-02-28T13:17:53;4.30;;;2.60;;
58896;SDS011;44677;52.378;10.400;2023-02-28T13:20:24;5.40;;;2.40;;
58896;SDS011;44677;52.378;10.400;2023-02-28T13:22:52;2.60;;;2.30;;
58896;SDS011;44677;52.378;10.400;2023-02-28T13:27:48;2.90;;;2.40;;
58896;SDS011;44677;52.378;10.400;2023-02-28T13:36:06;2.40;;;2.20;;
58896;SDS011;44677;52.378;10.400;2023-02-28T13:38:42;3.60;;;2.30;;
58896;SDS011;44677;52.378;10.400;2023-02-28T13:46:29;5.70;;;2.30;;
58896;SDS011;44677;52.378;10.400;2023-02-28T13:48:56;2.70;;;2.50;;
58896;SDS011;44677;52.378;10.400;2023-02-28T13:51:34;2.50;;;2.30;;
58896;SDS011;44677;52.378;10.400;2023-02-28T13:54:15;2.90;;;2.00;;
58896;SDS011;44677;52.378;10.400;2023-02-28T14:02:41;3.50;;;2.40;;
58896;SDS011;44677;52.378;10.400;2023-02-28T14:05:15;3.30;;;2.60;;
58896;SDS011;44677;52.378;10.400;2023-02-28T14:08:25;3.70;;;2.30;;
58896;SDS011;44677;52.378;10.400;2023-02-28T14:10:36;2.90;;;2.30;;
58896;SDS011;44677;52.378;10.400;2023-02-28T14:15:55;2.50;;;2.30;;
58896;SDS011;44677;52.378;10.400;2023-02-28T14:18:25;2.60;;;2.40;;
58896;SDS011;44677;52.378;10.400;2023-02-28T14:21:12;2.70;;;2.30;;
58896;SDS011;44677;52.378;10.400;2023-02-28T14:24:01;3.10;;;2.30;;
58896;SDS011;44677;52.378;10.400;2023-02-28T14:37:51;2.80;;;2.10;;
58896;SDS011;44677;52.378;10.400;2023-02-28T14:40:30;2.70;;;2.20;;
58896;SDS011;44677;52.378;10.400;2023-02-28T14:42:57;3.00;;;2.50;;
58896;SDS011;44677;52.378;10.400;2023-02-28T14:45:28;2.90;;;2.60;;
58896;SDS011;44677;52.378;10.400;2023-02-28T14:47:55;4.00;;;2.60;;
58896;SDS011;44677;52.378;10.400;2023-02-28T14:50:32;2.80;;;2.60;;
58896;SDS011;44677;52.378;10.400;2023-02-28T14:53:00;2.40;;;2.30;;
58896;SDS011;44677;52.378;10.400;2023-02-28T14:55:28;4.60;;;2.70;;
58896;SDS011;44677;52.378;10.400;2023-02-28T14:58:02;4.20;;;2.50;;
58896;SDS011;44677;52.378;10.400;2023-02-28T15:00:33;2.90;;;2.60;;
58896;SDS011;44677;52.378;10.400;2023-02-28T15:03:00;3.10;;;2.50;;
58896;SDS011;44677;52.378;10.400;2023-02-28T15:10:42;2.70;;;2.50;;
58896;SDS011;44677;52.378;10.400;2023-02-28T15:13:13;5.10;;;3.00;;
58896;SDS011;44677;52.378;10.400;2023-02-28T15:15:41;3.40;;;2.70;;
58896;SDS011;44677;52.378;10.400;2023-02-28T15:18:13;3.00;;;2.60;;
58896;SDS011;44677;52.378;10.400;2023-02-28T15:20:59;2.40;;;2.20;;
58896;SDS011;44677;52.378;10.400;2023-02-28T15:23:51;4.30;;;2.60;;
58896;SDS011;44677;52.378;10.400;2023-02-28T15:26:20;2.40;;;2.20;;
58896;SDS011;44677;52.378;10.400;2023-02-28T15:29:01;3.80;;;2.80;;
58896;SDS011;44677;52.378;10.400;2023-02-28T15:31:49;4.10;;;2.80;;
58896;SDS011;44677;52.378;10.400;2023-02-28T15:34:20;2.90;;;2.70;;
58896;SDS011;44677;52.378;10.400;2023-02-28T15:36:47;3.00;;;2.70;;
58896;SDS011;44677;52.378;10.400;2023-02-28T15:39:21;3.10;;;2.60;;
58896;SDS011;44677;52.378;10.400;2023-02-28T15:41:48;2.90;;;2.70;;
58896;SDS011;44677;52.378;10.400;2023-02-28T15:44:27;4.50;;;2.70;;
58896;SDS011;44677;52.378;10.400;2023-02-28T15:46:58;3.30;;;3.00;;
58896;SDS011;44677;52.378;10.400;2023-02-28T15:49:24;2.90;;;2.60;;
58896;SDS011;44677;52.378;10.400;2023-02-28T15:51:50;2.80;;;2.50;;
58896;SDS011;44677;52.378;10.400;2023-02-28T15:54:19;3.30;;;2.80;;
58896;SDS011;44677;52.378;10.400;2023-02-28T15:56:53;4.70;;;2.70;;
58896;SDS011;44677;52.378;10.400;2023-02-28T15:59:22;3.50;;;2.90;;
58896;SDS011;44677;52.378;10.400;2023-02-28T16:07:31;3.20;;;2.80;;
58896;SDS011;44677;52.378;10.400;2023-02-28T16:09:56;7.20;;;3.00;;
58896;SDS011;44677;52.378;10.400;2023-02-28T16:12:24;3.00;;;2.60;;
58896;SDS011;44677;52.378;10.400;2023-02-28T16:17:51;5.30;;;3.00;;
58896;SDS011;44677;52.378;10.400;2023-02-28T16:20:18;6.20;;;3.00;;
58896;SDS011;44677;52.378;10.400;2023-02-28T16:22:46;3.30;;;3.00;;
58896;SDS011;44677;52.378;10.400;2023-02-28T16:25:16;5.30;;;2.80;;
58896;SDS011;44677;52.378;10.400;2023-02-28T16:27:43;2.80;;;2.60;;
58896;SDS011;44677;52.378;10.400;2023-02-28T16:30:17;2.80;;;2.50;;
58896;SDS011;44677;52.378;10.400;2023-02-28T16:32:48;2.70;;;2.40;;
58896;SDS011;44677;52.378;10.400;2023-02-28T16:35:14;7.40;;;3.30;;
58896;SDS011;44677;52.378;10.400;2023-02-28T16:37:40;2.70;;;2.30;;
58896;SDS011;44677;52.378;10.400;2023-02-28T16:40:06;4.00;;;2.90;;
58896;SDS011;44677;52.378;10.400;2023-02-28T16:42:34;5.20;;;3.10;;
58896;SDS011;44677;52.378;10.400;2023-02-28T16:45:00;6.10;;;3.50;;
58896;SDS011;44677;52.378;10.400;2023-02-28T16:47:25;5.50;;;4.30;;
58896;SDS011;44677;52.378;10.400;2023-02-28T16:49:52;7.50;;;4.60;;
58896;SDS011;44677;52.378;10.400;2023-02-28T16:52:17;7.20;;;5.00;;
58896;SDS011;44677;52.378;10.400;2023-02-28T16:54:43;10.70;;;6.40;;
58896;SDS011;44677;52.378;10.400;2023-02-28T16:57:16;11.20;;;7.00;;
58896;SDS011;44677;52.378;10.400;2023-02-28T16:59:45;10.50;;;6.40;;